Time;durP1;ratioP1;P1;durP2;ratioP2;P2;SDS_P1;SDS_P2;PMS_P1;PMS_P2;Temp;Humidity;BMP_temperature;BMP_pressure;BME280_temperature;BME280_humidity;BME280_pressure;Samples;Min_cycle;Max_cycle;Signal;HPM_P1;HPM_P2
2022/10/13 00:00:37;;;;;;;;;;;;;;;20.83;55.22;100024.03;7314306;19;130267;-37
2022/10/13 00:03:02;;;;;;;;;;;;;;;20.83;54.99;100029.25;7309037;19;129853;-38
2022/10/13 00:05:28;;;;;;;;;;;;;;;20.81;54.89;100025.94;7297536;19;133141;-38
2022/10/13 00:07:53;;;;;;;;;;;;;;;20.79;54.57;100030.47;7305444;19;129302;-37
2022/10/13 00:10:18;;;;;;;;;;;;;;;20.84;54.53;100030.91;7308012;19;129066;-38
2022/10/13 00:12:44;;;;;;;;;;;;;;;20.85;55.01;100029.13;7306251;19;129566;-37
2022/10/13 00:15:09;;;;;;;;;;;;;;;20.83;55.21;100034.47;7308861;19;131422;-37
2022/10/13 00:17:35;;;;;;;;;;;;;;;20.82;55.01;100027.63;7307408;19;129562;-36
2022/10/13 00:20:01;;;;;;;;;;;;;;;20.80;54.98;100029.50;7310117;19;130483;-37
2022/10/13 00:22:26;;;;;;;;;;;;;;;20.73;55.56;100007.44;7306938;19;130935;-37
2022/10/13 00:24:52;;;;;;;;;;;;;;;20.80;54.80;100024.28;7306812;19;129691;-38
2022/10/13 00:27:17;;;;;;;;;;;;;;;20.79;54.43;100021.81;7306576;19;130783;-38
2022/10/13 00:29:43;;;;;;;;;;;;;;;20.79;54.98;100022.63;7306951;19;129468;-37
2022/10/13 00:32:08;;;;;;;;;;;;;;;20.80;54.64;100024.28;7304582;19;130099;-38
2022/10/13 00:34:35;;;;;;;;;;;;;;;20.77;54.72;100019.31;7303160;19;130213;-38
2022/10/13 00:37:00;;;;;;;;;;;;;;;20.74;54.40;100024.78;7304547;19;129270;-36
2022/10/13 00:39:26;;;;;;;;;;;;;;;20.75;55.09;100023.81;7302502;19;129300;-38
2022/10/13 00:41:53;;;;;;;;;;;;;;;20.71;54.13;100022.41;7300125;19;130880;-37
2022/10/13 00:44:37;;;;;;;;;;;;;;;20.70;54.55;100023.38;7312813;19;130561;-38
2022/10/13 00:47:02;;;;;;;;;;;;;;;20.75;54.67;100021.22;7309564;19;129935;-37
2022/10/13 00:49:28;;;;;;;;;;;;;;;20.68;54.74;100001.75;7313419;19;129067;-37
2022/10/13 00:51:53;;;;;;;;;;;;;;;20.79;54.51;100012.19;7312771;19;129686;-36
2022/10/13 00:54:22;;;;;;;;;;;;;;;20.66;54.51;99996.66;7312781;19;130281;-38
2022/10/13 00:56:49;;;;;;;;;;;;;;;20.78;54.30;100015.72;7287652;19;131422;-37
2022/10/13 00:59:21;;;;;;;;;;;;;;;20.75;55.09;100010.75;7314105;19;129299;-38
2022/10/13 01:01:49;;;;;;;;;;;;;;;20.76;53.98;100017.63;7304736;19;129896;-37
2022/10/13 01:04:16;;;;;;;;;;;;;;;20.67;54.88;100007.94;7304585;19;129306;-38
2022/10/13 01:06:42;;;;;;;;;;;;;;;20.69;54.33;100011.28;7301482;19;129852;-37
2022/10/13 01:09:07;;;;;;;;;;;;;;;20.67;54.42;100002.72;7303453;19;129510;-38
2022/10/13 01:11:51;;;;;;;;;;;;;;;20.63;54.46;99996.06;7305135;19;130270;-37
2022/10/13 01:14:22;;;;;;;;;;;;;;;20.67;53.94;99997.50;7300365;19;131167;-38
2022/10/13 01:16:53;;;;;;;;;;;;;;;20.72;54.09;100009.22;7302008;19;132874;-38
2022/10/13 01:19:24;;;;;;;;;;;;;;;20.60;54.53;99991.94;7304279;19;129535;-39
2022/10/13 01:22:12;;;;;;;;;;;;;;;20.73;54.96;100007.44;7304052;19;130964;-36
2022/10/13 01:24:55;;;;;;;;;;;;;;;20.72;54.28;100003.19;7304886;19;130461;-36
2022/10/13 01:27:39;;;;;;;;;;;;;;;20.71;54.66;100004.94;7302363;19;130015;-38
2022/10/13 01:30:04;;;;;;;;;;;;;;;20.71;53.91;99998.88;7296836;19;130212;-38
2022/10/13 01:32:30;;;;;;;;;;;;;;;20.71;53.99;99996.28;7310968;19;131935;-38
2022/10/13 01:35:10;;;;;;;;;;;;;;;20.66;54.18;99990.59;7309191;19;129774;-37
2022/10/13 01:37:36;;;;;;;;;;;;;;;20.67;54.07;99994.88;7311629;19;129386;-37
2022/10/13 01:40:09;;;;;;;;;;;;;;;20.65;54.13;99995.00;7313934;19;129071;-37
2022/10/13 01:42:41;;;;;;;;;;;;;;;20.63;53.95;99985.63;7305472;19;131303;-37
2022/10/13 01:45:09;;;;;;;;;;;;;;;20.67;54.32;99981.81;7304443;19;129584;-39
2022/10/13 01:47:35;;;;;;;;;;;;;;;20.67;54.22;99992.28;7309902;19;130416;-37
2022/10/13 01:50:01;;;;;;;;;;;;;;;20.66;53.71;99985.38;7310083;19;129451;-38
2022/10/13 01:52:31;;;;;;;;;;;;;;;20.66;53.96;99987.97;7294623;19;131430;-36
2022/10/13 01:54:56;;;;;;;;;;;;;;;20.70;54.27;99986.78;7301180;19;129705;-37
2022/10/13 01:57:32;;;;;;;;;;;;;;;20.66;53.99;99974.91;7297517;19;129543;-38
2022/10/13 01:59:59;;;;;;;;;;;;;;;20.64;54.23;99980.28;7304934;19;130156;-37
2022/10/13 02:02:27;;;;;;;;;;;;;;;20.65;54.33;99983.72;7302383;19;130285;-38
2022/10/13 02:05:02;;;;;;;;;;;;;;;20.56;54.26;99960.97;7305807;19;129688;-37
2022/10/13 02:07:35;;;;;;;;;;;;;;;20.68;54.34;99978.25;7296751;19;129187;-37
2022/10/13 02:10:07;;;;;;;;;;;;;;;20.66;53.82;99978.38;7310783;19;129143;-37
2022/10/13 02:12:41;;;;;;;;;;;;;;;20.66;54.70;99977.53;7310397;19;131478;-37
2022/10/13 02:15:08;;;;;;;;;;;;;;;20.64;54.24;99971.63;7309069;19;129642;-37
2022/10/13 02:17:33;;;;;;;;;;;;;;;20.68;53.88;99978.25;7309429;19;129093;-38
2022/10/13 02:19:58;;;;;;;;;;;;;;;20.67;54.23;99971.38;7314375;19;129939;-37
2022/10/13 02:22:28;;;;;;;;;;;;;;;20.66;54.14;99969.69;7315805;19;129847;-37
2022/10/13 02:24:54;;;;;;;;;;;;;;;20.57;54.25;99957.41;7309887;19;130048;-38
2022/10/13 02:27:20;;;;;;;;;;;;;;;20.62;54.76;99969.13;7312432;19;130202;-37
2022/10/13 02:29:53;;;;;;;;;;;;;;;20.58;54.75;99969.50;7317385;19;129227;-38
2022/10/13 02:32:18;;;;;;;;;;;;;;;20.65;54.53;99968.03;7311818;19;130615;-37
2022/10/13 02:34:43;;;;;;;;;;;;;;;20.61;54.43;99961.41;7314341;19;129579;-38
2022/10/13 02:37:10;;;;;;;;;;;;;;;20.65;54.13;99960.22;7313987;19;129303;-37
2022/10/13 02:39:35;;;;;;;;;;;;;;;20.60;53.93;99964.97;7308415;19;129364;-37
2022/10/13 02:42:00;;;;;;;;;;;;;;;20.60;53.87;99964.97;7293067;19;130593;-38
2022/10/13 02:44:25;;;;;;;;;;;;;;;20.64;54.48;99961.19;7308240;19;129949;-38
2022/10/13 02:46:51;;;;;;;;;;;;;;;20.60;53.53;99959.75;7302732;19;129110;-38
2022/10/13 02:49:16;;;;;;;;;;;;;;;20.55;54.10;99946.22;7310702;19;132785;-37
2022/10/13 02:51:41;;;;;;;;;;;;;;;20.64;54.23;99961.19;7308072;19;131139;-38
2022/10/13 02:54:06;;;;;;;;;;;;;;;20.63;54.43;99962.09;7309212;19;129673;-37
2022/10/13 02:56:32;;;;;;;;;;;;;;;20.63;53.83;99960.34;7308950;19;130558;-38
2022/10/13 02:58:57;;;;;;;;;;;;;;;20.60;54.40;99960.59;7304328;19;130532;-37
2022/10/13 03:01:22;;;;;;;;;;;;;;;20.63;54.47;99959.50;7316169;19;130134;-38
2022/10/13 03:03:47;;;;;;;;;;;;;;;20.58;54.22;99957.25;7312678;19;130990;-37
2022/10/13 03:06:13;;;;;;;;;;;;;;;20.61;53.85;99956.16;7314682;19;128962;-37
2022/10/13 03:08:38;;;;;;;;;;;;;;;20.57;53.62;99952.16;7299378;19;130670;-37
2022/10/13 03:11:03;;;;;;;;;;;;;;;20.57;54.38;99945.16;7297906;19;130483;-38
2022/10/13 03:13:28;;;;;;;;;;;;;;;20.63;54.17;99949.03;7306388;19;130899;-37
2022/10/13 03:15:54;;;;;;;;;;;;;;;20.63;53.93;99964.72;7302020;19;130554;-38
2022/10/13 03:18:19;;;;;;;;;;;;;;;20.52;54.07;99941.25;7308065;19;130279;-37
2022/10/13 03:20:44;;;;;;;;;;;;;;;20.63;54.55;99954.28;7307112;19;130355;-38
2022/10/13 03:23:09;;;;;;;;;;;;;;;20.62;54.51;99948.25;7308060;19;129783;-37
2022/10/13 03:25:36;;;;;;;;;;;;;;;20.57;54.43;99939.94;7310376;19;129695;-37
2022/10/13 03:28:01;;;;;;;;;;;;;;;20.58;53.78;99941.59;7298283;19;131725;-37
2022/10/13 03:30:26;;;;;;;;;;;;;;;20.58;53.78;99953.81;7274137;19;131797;-38
2022/10/13 03:32:51;;;;;;;;;;;;;;;20.58;53.36;99941.59;7291300;19;131126;-37
2022/10/13 03:35:17;;;;;;;;;;;;;;;20.63;53.84;99944.66;7296574;19;131154;-37
2022/10/13 03:37:42;;;;;;;;;;;;;;;20.66;53.44;99943.56;7289961;19;130548;-38
2022/10/13 03:40:07;;;;;;;;;;;;;;;20.65;54.06;99944.53;7293985;19;131253;-38
2022/10/13 03:42:35;;;;;;;;;;;;;;;20.60;54.35;99938.84;7293812;19;131109;-37
2022/10/13 03:45:01;;;;;;;;;;;;;;;20.52;53.90;99922.97;7302150;19;129486;-37
2022/10/13 03:47:26;;;;;;;;;;;;;;;20.63;53.59;99938.59;7303842;19;131481;-38
2022/10/13 03:49:54;;;;;;;;;;;;;;;20.56;54.11;99937.47;7297824;19;129839;-38
2022/10/13 03:52:19;;;;;;;;;;;;;;;20.57;54.15;99944.34;7307775;19;131017;-37
2022/10/13 03:54:44;;;;;;;;;;;;;;;20.59;53.98;99937.22;7304498;19;129943;-39
2022/10/13 03:57:09;;;;;;;;;;;;;;;20.57;54.29;99944.34;7307143;19;129197;-38
2022/10/13 03:59:35;;;;;;;;;;;;;;;20.58;53.86;99951.19;7307455;19;130721;-36
2022/10/13 04:02:00;;;;;;;;;;;;;;;20.56;54.25;99946.09;7304674;19;132284;-39
2022/10/13 04:04:25;;;;;;;;;;;;;;;20.54;53.59;99936.75;7306112;19;130163;-38
2022/10/13 04:06:50;;;;;;;;;;;;;;;20.58;53.53;99940.75;7302073;19;130190;-36
2022/10/13 04:09:15;;;;;;;;;;;;;;;20.55;53.31;99939.22;7311349;19;129334;-37
2022/10/13 04:11:41;;;;;;;;;;;;;;;20.52;53.68;99936.03;7310181;19;130227;-37
2022/10/13 04:14:06;;;;;;;;;;;;;;;20.51;53.86;99947.44;7314809;19;129098;-37
2022/10/13 04:16:31;;;;;;;;;;;;;;;20.51;53.91;99940.44;7311310;19;129406;-39
2022/10/13 04:18:58;;;;;;;;;;;;;;;20.49;54.40;99941.53;7313201;19;129081;-37
2022/10/13 04:21:25;;;;;;;;;;;;;;;20.51;54.30;99944.84;7307231;19;130558;-38
2022/10/13 04:23:52;;;;;;;;;;;;;;;20.49;54.06;99931.06;7305385;19;130969;-38
2022/10/13 04:26:21;;;;;;;;;;;;;;;20.52;54.04;99938.66;7306013;19;130372;-37
2022/10/13 04:28:48;;;;;;;;;;;;;;;20.57;53.91;99933.88;7303352;19;131062;-38
2022/10/13 04:31:13;;;;;;;;;;;;;;;20.53;54.65;99924.63;7306001;19;129171;-37
2022/10/13 04:33:38;;;;;;;;;;;;;;;20.58;54.41;99935.53;7306633;19;130518;-37
2022/10/13 04:36:07;;;;;;;;;;;;;;;20.51;54.08;99932.59;7304284;19;131280;-37
2022/10/13 04:38:33;;;;;;;;;;;;;;;20.52;53.73;99933.44;7302033;19;131992;-38
2022/10/13 04:41:01;;;;;;;;;;;;;;;20.53;53.64;99937.69;7302561;19;130480;-37
2022/10/13 04:43:27;;;;;;;;;;;;;;;20.52;53.79;99926.44;7310220;19;130339;-37
2022/10/13 04:45:52;;;;;;;;;;;;;;;20.51;54.75;99926.56;7310055;19;129043;-37
2022/10/13 04:48:17;;;;;;;;;;;;;;;20.56;54.28;99927.00;7309533;19;129770;-38
2022/10/13 04:50:43;;;;;;;;;;;;;;;20.47;53.74;99917.31;7311265;19;130120;-36
2022/10/13 04:53:08;;;;;;;;;;;;;;;20.49;53.37;99925.84;7303577;19;129416;-37
2022/10/13 04:55:36;;;;;;;;;;;;;;;20.37;54.49;99908.56;7303717;19;129975;-38
2022/10/13 04:58:01;;;;;;;;;;;;;;;20.54;53.77;99923.69;7303961;19;129402;-38
2022/10/13 05:00:27;;;;;;;;;;;;;;;20.53;53.22;99922.00;7305083;19;129252;-38
2022/10/13 05:02:52;;;;;;;;;;;;;;;20.53;53.71;99922.00;7304715;19;129048;-37
2022/10/13 05:05:17;;;;;;;;;;;;;;;20.36;53.53;99894.66;7300739;19;129660;-38
2022/10/13 05:07:42;;;;;;;;;;;;;;;20.50;53.80;99906.59;7303968;19;130032;-37
2022/10/13 05:10:08;;;;;;;;;;;;;;;20.47;53.37;99910.31;7297222;19;130335;-38
2022/10/13 05:12:33;;;;;;;;;;;;;;;20.51;53.84;99908.28;7303686;19;130728;-37
2022/10/13 05:14:59;;;;;;;;;;;;;;;20.45;54.27;99898.31;7306237;19;129618;-37
2022/10/13 05:17:24;;;;;;;;;;;;;;;20.44;53.09;99901.88;7303977;19;130803;-38
2022/10/13 05:19:49;;;;;;;;;;;;;;;20.46;54.04;99916.47;7304927;19;130815;-37
2022/10/13 05:22:14;;;;;;;;;;;;;;;20.42;53.77;99909.84;7301463;19;130025;-38
2022/10/13 05:24:39;;;;;;;;;;;;;;;20.42;53.51;99909.00;7304135;19;129107;-37
2022/10/13 05:27:09;;;;;;;;;;;;;;;20.40;53.79;99909.13;7293003;19;129446;-38
2022/10/13 05:29:34;;;;;;;;;;;;;;;20.43;53.54;99900.22;7299331;19;130556;-38
2022/10/13 05:32:00;;;;;;;;;;;;;;;20.42;53.92;99898.56;7303516;19;131241;-37
2022/10/13 05:34:25;;;;;;;;;;;;;;;20.40;53.54;99896.06;7305321;19;129498;-37
2022/10/13 05:36:50;;;;;;;;;;;;;;;20.40;53.27;99893.47;7299213;19;129626;-37
2022/10/13 05:39:16;;;;;;;;;;;;;;;20.41;54.01;99886.47;7306027;19;130338;-36
2022/10/13 05:41:41;;;;;;;;;;;;;;;20.40;53.99;99897.84;7300698;19;130478;-37
2022/10/13 05:44:07;;;;;;;;;;;;;;;20.42;54.63;99893.34;7310655;19;130334;-38
2022/10/13 05:46:33;;;;;;;;;;;;;;;20.40;54.12;99890.03;7305581;19;131850;-37
2022/10/13 05:48:58;;;;;;;;;;;;;;;20.44;54.47;99892.25;7305964;19;130043;-36
2022/10/13 05:51:29;;;;;;;;;;;;;;;20.43;54.05;99900.22;7307504;19;130740;-37
2022/10/13 05:53:59;;;;;;;;;;;;;;;20.40;54.19;99888.25;7308338;19;130120;-37
2022/10/13 05:56:26;;;;;;;;;;;;;;;20.43;53.68;99890.59;7305198;19;129272;-36
2022/10/13 05:58:57;;;;;;;;;;;;;;;20.45;53.90;99893.09;7296939;19;129469;-38
2022/10/13 06:01:24;;;;;;;;;;;;;;;20.41;54.27;99891.69;7300015;19;129693;-37
2022/10/13 06:03:51;;;;;;;;;;;;;;;20.42;54.37;99899.41;7294524;19;129319;-38
2022/10/13 06:06:16;;;;;;;;;;;;;;;20.43;53.74;99901.03;7303710;19;129959;-37
2022/10/13 06:08:42;;;;;;;;;;;;;;;20.40;53.55;99892.63;7309726;19;130416;-38
2022/10/13 06:11:07;;;;;;;;;;;;;;;20.43;54.24;99897.59;7310774;19;128972;-38
2022/10/13 06:13:32;;;;;;;;;;;;;;;20.44;54.46;99896.66;7309477;19;130328;-36
2022/10/13 06:15:58;;;;;;;;;;;;;;;20.44;54.46;99892.25;7307380;19;129029;-37
2022/10/13 06:18:23;;;;;;;;;;;;;;;20.38;54.05;99902.38;7307283;19;129640;-37
2022/10/13 06:20:48;;;;;;;;;;;;;;;20.43;54.40;99892.38;7308615;19;129454;-38
2022/10/13 06:23:13;;;;;;;;;;;;;;;20.43;54.27;99895.81;7307359;19;129883;-37
2022/10/13 06:25:45;;;;;;;;;;;;;;;20.43;54.10;99893.22;7306213;19;130088;-38
2022/10/13 06:28:11;;;;;;;;;;;;;;;20.46;54.23;99887.72;7309197;19;129650;-38
2022/10/13 06:30:37;;;;;;;;;;;;;;;20.49;53.92;99899.72;7308622;19;130645;-38
2022/10/13 06:33:02;;;;;;;;;;;;;;;20.47;53.20;99891.19;7307959;19;129190;-38
2022/10/13 06:35:27;;;;;;;;;;;;;;;20.43;53.60;99889.75;7307742;19;129519;-38
2022/10/13 06:37:53;;;;;;;;;;;;;;;20.41;53.13;99896.91;7308320;19;130964;-36
2022/10/13 06:40:18;;;;;;;;;;;;;;;20.37;53.29;99900.72;7308226;19;129210;-36
2022/10/13 06:42:47;;;;;;;;;;;;;;;20.40;54.03;99900.47;7305837;19;130701;-38
2022/10/13 06:45:13;;;;;;;;;;;;;;;20.40;53.56;99900.47;7308906;19;129027;-38
2022/10/13 06:47:38;;;;;;;;;;;;;;;20.45;53.85;99909.59;7308842;19;131085;-38
2022/10/13 06:50:04;;;;;;;;;;;;;;;20.40;53.32;99905.69;7308290;19;129212;-37
2022/10/13 06:52:29;;;;;;;;;;;;;;;20.38;53.31;99908.41;7310177;19;128969;-37
2022/10/13 06:54:54;;;;;;;;;;;;;;;20.42;54.18;99919.44;7309424;19;130250;-37
2022/10/13 06:57:19;;;;;;;;;;;;;;;20.34;53.81;99921.84;7305331;19;130352;-38
2022/10/13 06:59:45;;;;;;;;;;;;;;;20.41;53.50;99923.03;7312075;19;130908;-37
2022/10/13 07:02:10;;;;;;;;;;;;;;;20.40;53.90;99924.81;7306792;19;128900;-37
2022/10/13 07:04:35;;;;;;;;;;;;;;;20.36;54.01;99927.78;7312101;19;130618;-38
2022/10/13 07:07:00;;;;;;;;;;;;;;;20.35;53.99;99928.72;7311504;19;129189;-37
2022/10/13 07:09:26;;;;;;;;;;;;;;;20.37;53.98;99929.44;7315185;19;130176;-38
2022/10/13 07:11:51;;;;;;;;;;;;;;;20.35;53.69;99928.72;7315550;19;130136;-38
2022/10/13 07:14:16;;;;;;;;;;;;;;;20.37;54.34;99932.88;7314404;19;130175;-37
2022/10/13 07:16:41;;;;;;;;;;;;;;;20.35;53.81;99933.94;7312236;19;130349;-37
2022/10/13 07:19:07;;;;;;;;;;;;;;;20.37;53.44;99935.50;7314329;19;129498;-37
2022/10/13 07:21:32;;;;;;;;;;;;;;;20.38;53.45;99931.94;7315081;19;129281;-37
2022/10/13 07:23:57;;;;;;;;;;;;;;;20.34;53.91;99924.47;7316091;19;130505;-37
2022/10/13 07:26:22;;;;;;;;;;;;;;;20.24;53.92;99910.50;7313957;19;130364;-37
2022/10/13 07:28:48;;;;;;;;;;;;;;;20.40;54.40;99921.34;7315511;19;128907;-37
2022/10/13 07:31:15;;;;;;;;;;;;;;;20.37;54.27;99926.84;7307943;19;130177;-37
2022/10/13 07:33:41;;;;;;;;;;;;;;;20.35;53.94;99918.28;7314056;19;131106;-38
2022/10/13 07:36:07;;;;;;;;;;;;;;;20.31;53.52;99924.72;7313432;19;129790;-38
2022/10/13 07:38:33;;;;;;;;;;;;;;;20.33;54.09;99917.56;7313318;19;130318;-38
2022/10/13 07:41:01;;;;;;;;;;;;;;;20.32;53.93;99914.16;7313524;19;129777;-37
2022/10/13 07:43:27;;;;;;;;;;;;;;;20.28;53.71;99911.91;7312040;19;130472;-37
2022/10/13 07:45:52;;;;;;;;;;;;;;;20.18;54.27;99887.50;7311941;19;129234;-37
2022/10/13 07:48:17;;;;;;;;;;;;;;;20.28;54.24;99902.28;7313910;19;129390;-37
2022/10/13 07:50:42;;;;;;;;;;;;;;;20.34;54.50;99901.81;7315402;19;130301;-37
2022/10/13 07:53:08;;;;;;;;;;;;;;;20.34;54.73;99896.59;7314641;19;130123;-36
2022/10/13 07:55:33;;;;;;;;;;;;;;;20.33;54.02;99902.75;7311821;19;131056;-37
2022/10/13 07:58:02;;;;;;;;;;;;;;;20.38;54.22;99894.53;7313694;19;129719;-37
2022/10/13 08:00:27;;;;;;;;;;;;;;;20.25;54.43;99894.69;7314387;19;129069;-38
2022/10/13 08:02:53;;;;;;;;;;;;;;;20.27;54.46;99886.75;7314661;19;130849;-38
2022/10/13 08:05:18;;;;;;;;;;;;;;;20.27;54.14;99890.19;7314340;19;131208;-37
2022/10/13 08:07:43;;;;;;;;;;;;;;;20.26;54.44;99891.13;7312203;19;129039;-37
2022/10/13 08:10:09;;;;;;;;;;;;;;;20.17;54.62;99868.41;7307909;19;130265;-36
2022/10/13 08:12:34;;;;;;;;;;;;;;;20.24;54.67;99879.16;7312052;19;129712;-37
2022/10/13 08:15:00;;;;;;;;;;;;;;;20.26;54.37;99872.84;7299640;19;132740;-38
2022/10/13 08:17:25;;;;;;;;;;;;;;;20.30;54.98;99874.28;7311718;19;129410;-38
2022/10/13 08:19:51;;;;;;;;;;;;;;;20.32;53.98;99871.53;7314403;19;129208;-37
2022/10/13 08:22:16;;;;;;;;;;;;;;;20.29;54.93;99877.84;7310820;19;129838;-37
2022/10/13 08:24:42;;;;;;;;;;;;;;;20.27;54.71;99878.91;7312520;19;129507;-37
2022/10/13 08:27:09;;;;;;;;;;;;;;;20.24;54.45;99873.94;7311367;19;128980;-37
2022/10/13 08:29:35;;;;;;;;;;;;;;;20.25;54.41;99870.38;7313285;19;129146;-37
2022/10/13 08:32:00;;;;;;;;;;;;;;;20.27;54.35;99873.69;7313839;19;129360;-37
2022/10/13 08:34:25;;;;;;;;;;;;;;;20.27;54.45;99876.31;7314772;19;129602;-36
2022/10/13 08:36:53;;;;;;;;;;;;;;;20.24;54.55;99864.34;7309371;19;128954;-37
2022/10/13 08:39:18;;;;;;;;;;;;;;;20.25;54.43;99859.94;7314402;19;129206;-38
2022/10/13 08:41:43;;;;;;;;;;;;;;;20.12;54.38;99844.41;7312678;19;130177;-37
2022/10/13 08:44:18;;;;;;;;;;;;;;;20.24;55.11;99861.72;7313874;19;130803;-38
2022/10/13 08:46:49;;;;;;;;;;;;;;;20.09;55.19;99833.38;7309567;19;129031;-38
2022/10/13 08:49:15;;;;;;;;;;;;;;;20.19;55.20;99853.44;7312505;19;130527;-38
2022/10/13 08:51:41;;;;;;;;;;;;;;;20.12;54.88;99841.81;7310280;19;130332;-37
2022/10/13 08:54:06;;;;;;;;;;;;;;;20.23;55.46;99851.41;7313393;19;132372;-37
2022/10/13 08:56:33;;;;;;;;;;;;;;;20.24;54.94;99853.91;7311524;19;131208;-37
2022/10/13 08:59:00;;;;;;;;;;;;;;;20.23;55.06;99844.38;7311596;19;130543;-37
2022/10/13 09:01:32;;;;;;;;;;;;;;;20.13;55.39;99829.59;7312718;19;129127;-38
2022/10/13 09:03:57;;;;;;;;;;;;;;;20.24;54.94;99846.06;7313173;19;130444;-37
2022/10/13 09:06:43;;;;;;;;;;;;;;;20.23;55.09;99846.19;7310843;19;131251;-37
2022/10/13 09:09:10;;;;;;;;;;;;;;;20.11;54.80;99826.28;7309489;19;129292;-37
2022/10/13 09:11:47;;;;;;;;;;;;;;;20.13;55.48;99832.19;7310023;19;129646;-37
2022/10/13 09:14:18;;;;;;;;;;;;;;;20.19;55.63;99844.78;7312603;19;129263;-37
2022/10/13 09:16:47;;;;;;;;;;;;;;;20.21;55.29;99837.66;7305024;19;146446;-38
2022/10/13 09:19:16;;;;;;;;;;;;;;;20.16;55.19;99838.00;7307272;19;129805;-37
2022/10/13 09:21:41;;;;;;;;;;;;;;;20.24;55.18;99834.78;7309919;19;130352;-37
2022/10/13 09:24:11;;;;;;;;;;;;;;;20.21;55.66;99832.44;7303454;19;130108;-37
2022/10/13 09:26:37;;;;;;;;;;;;;;;20.24;56.06;99827.78;7309334;19;129678;-37
2022/10/13 09:29:10;;;;;;;;;;;;;;;20.20;55.43;99835.97;7303798;19;130056;-37
2022/10/13 09:31:36;;;;;;;;;;;;;;;20.11;56.11;99806.22;7308644;19;129482;-37
2022/10/13 09:34:13;;;;;;;;;;;;;;;20.22;55.69;99831.47;7310015;19;130399;-38
2022/10/13 09:36:53;;;;;;;;;;;;;;;20.14;55.46;99821.63;7309613;19;129355;-37
2022/10/13 09:39:18;;;;;;;;;;;;;;;20.20;56.07;99825.53;7309617;19;130406;-37
2022/10/13 09:41:44;;;;;;;;;;;;;;;20.26;55.59;99819.84;7307330;19;129329;-38
2022/10/13 09:44:11;;;;;;;;;;;;;;;20.21;55.66;99822.00;7310991;19;129744;-37
2022/10/13 09:46:38;;;;;;;;;;;;;;;20.24;56.08;99819.13;7308943;19;129064;-38
2022/10/13 09:49:06;;;;;;;;;;;;;;;20.28;56.22;99818.75;7303758;19;131238;-38
2022/10/13 09:51:39;;;;;;;;;;;;;;;20.26;55.91;99814.63;7308719;19;129203;-37
2022/10/13 09:54:06;;;;;;;;;;;;;;;20.25;56.00;99819.00;7308077;19;130438;-38
2022/10/13 09:56:47;;;;;;;;;;;;;;;20.21;56.14;99812.34;7302353;19;129289;-38
2022/10/13 09:59:18;;;;;;;;;;;;;;;20.28;56.29;99812.72;7312758;19;129514;-37
2022/10/13 10:01:46;;;;;;;;;;;;;;;20.28;55.97;99812.72;7304812;19;130213;-37
2022/10/13 10:04:22;;;;;;;;;;;;;;;20.23;55.94;99809.66;7311960;19;129823;-36
2022/10/13 10:06:47;;;;;;;;;;;;;;;20.30;56.64;99816.84;7309065;19;128984;-38
2022/10/13 10:09:18;;;;;;;;;;;;;;;20.28;56.06;99815.31;7310071;19;129368;-38
2022/10/13 10:11:44;;;;;;;;;;;;;;;20.21;55.99;99811.53;7310308;19;129777;-37
2022/10/13 10:14:16;;;;;;;;;;;;;;;20.24;56.34;99806.06;7310685;19;130074;-37
2022/10/13 10:16:45;;;;;;;;;;;;;;;20.28;56.31;99802.28;7309226;19;129964;-37
2022/10/13 10:19:13;;;;;;;;;;;;;;;20.25;56.79;99797.28;7310848;19;129169;-37
2022/10/13 10:22:02;;;;;;;;;;;;;;;20.26;56.59;99793.72;7310594;19;129592;-36
2022/10/13 10:24:46;;;;;;;;;;;;;;;20.20;56.51;99782.00;7309523;19;131882;-38
2022/10/13 10:27:20;;;;;;;;;;;;;;;20.24;56.01;99795.63;7307244;19;130173;-38
2022/10/13 10:29:49;;;;;;;;;;;;;;;20.25;56.81;99789.44;7310254;19;129265;-38
2022/10/13 10:32:20;;;;;;;;;;;;;;;20.24;56.12;99795.63;7312005;19;130278;-38
2022/10/13 10:34:54;;;;;;;;;;;;;;;20.24;56.60;99796.47;7309033;19;130316;-38
2022/10/13 10:37:28;;;;;;;;;;;;;;;20.21;56.60;99795.88;7307511;19;130054;-38
2022/10/13 10:40:09;;;;;;;;;;;;;;;20.19;56.88;99784.72;7311731;19;130099;-38
2022/10/13 10:42:34;;;;;;;;;;;;;;;20.17;57.19;99784.03;7313263;19;130134;-37
2022/10/13 10:45:00;;;;;;;;;;;;;;;20.23;56.53;99791.38;7316107;19;129422;-37
2022/10/13 10:47:28;;;;;;;;;;;;;;;20.16;57.17;99782.38;7310479;19;130487;-38
2022/10/13 10:50:00;;;;;;;;;;;;;;;20.17;56.94;99777.03;7312203;19;129177;-37
2022/10/13 10:52:31;;;;;;;;;;;;;;;20.18;56.67;99776.06;7316893;19;129647;-38
2022/10/13 10:55:20;;;;;;;;;;;;;;;20.22;57.26;99774.03;7312137;19;130853;-37
2022/10/13 10:57:54;;;;;;;;;;;;;;;20.08;57.03;99749.03;7311021;19;131033;-37
2022/10/13 11:00:23;;;;;;;;;;;;;;;20.16;56.60;99759.69;7317707;19;129048;-36
2022/10/13 11:03:21;;;;;;;;;;;;;;;20.05;57.45;99738.84;7313042;19;130746;-39
2022/10/13 11:06:21;;;;;;;;;;;;;;;20.17;57.17;99752.69;7307409;19;129795;-37
2022/10/13 11:08:47;;;;;;;;;;;;;;;20.14;57.51;99745.94;7311335;19;129308;-36
2022/10/13 11:11:18;;;;;;;;;;;;;;;20.16;57.32;99753.66;7315546;19;129131;-38
2022/10/13 11:13:54;;;;;;;;;;;;;;;20.21;56.79;99744.47;7314312;19;131390;-38
2022/10/13 11:16:28;;;;;;;;;;;;;;;20.15;57.37;99742.38;7315424;19;130629;-37
2022/10/13 11:18:53;;;;;;;;;;;;;;;20.03;57.19;99721.69;7316112;19;128945;-37
2022/10/13 11:21:18;;;;;;;;;;;;;;;20.24;57.22;99738.19;7315964;19;129026;-37
2022/10/13 11:23:45;;;;;;;;;;;;;;;20.28;56.58;99734.38;7314922;19;129765;-37
2022/10/13 11:26:30;;;;;;;;;;;;;;;20.05;57.05;99704.09;7312888;19;129444;-38
2022/10/13 11:28:55;;;;;;;;;;;;;;;20.30;57.88;99722.00;7316825;19;130833;-38
2022/10/13 11:31:26;;;;;;;;;;;;;;;20.32;57.59;99710.50;7315220;19;130720;-37
2022/10/13 11:33:53;;;;;;;;;;;;;;;20.32;57.00;99704.44;7316556;19;131921;-37
2022/10/13 11:36:30;;;;;;;;;;;;;;;20.33;57.34;99706.91;7313246;19;129755;-38
2022/10/13 11:39:14;;;;;;;;;;;;;;;20.32;57.05;99702.66;7315112;19;129113;-37
2022/10/13 11:41:50;;;;;;;;;;;;;;;20.26;57.27;99697.13;7315013;19;129860;-36
2022/10/13 11:44:25;;;;;;;;;;;;;;;20.22;57.35;99693.09;7315529;19;130121;-37
2022/10/13 11:47:07;;;;;;;;;;;;;;;20.19;56.21;99688.16;7313985;19;129567;-38
2022/10/13 11:49:50;;;;;;;;;;;;;;;20.18;57.45;99687.31;7313037;19;131158;-38
2022/10/13 11:52:34;;;;;;;;;;;;;;;20.30;56.84;99688.91;7314987;19;128881;-37
2022/10/13 11:55:18;;;;;;;;;;;;;;;20.33;57.19;99687.81;7314319;19;129452;-38
2022/10/13 11:57:44;;;;;;;;;;;;;;;20.28;56.84;99693.41;7314346;19;129870;-38
2022/10/13 12:00:14;;;;;;;;;;;;;;;20.34;57.36;99697.31;7315750;19;129364;-37
2022/10/13 12:02:47;;;;;;;;;;;;;;;20.41;57.59;99694.03;7314011;19;130406;-38
2022/10/13 12:05:21;;;;;;;;;;;;;;;20.42;57.19;99693.09;7314507;19;130201;-37
2022/10/13 12:07:48;;;;;;;;;;;;;;;20.39;56.75;99687.31;7314238;19;130280;-38
2022/10/13 12:10:17;;;;;;;;;;;;;;;20.35;57.23;99681.50;7314165;19;129194;-37
2022/10/13 12:12:47;;;;;;;;;;;;;;;20.36;57.17;99675.31;7315559;19;128899;-38
2022/10/13 12:15:27;;;;;;;;;;;;;;;20.37;56.57;99676.16;7313997;19;129366;-39
2022/10/13 12:17:52;;;;;;;;;;;;;;;20.28;57.45;99656.06;7312112;19;129936;-38
2022/10/13 12:20:21;;;;;;;;;;;;;;;20.31;57.00;99676.69;7314296;19;128786;-38
2022/10/13 12:22:47;;;;;;;;;;;;;;;20.34;56.79;99671.19;7309782;19;130753;-36
2022/10/13 12:25:17;;;;;;;;;;;;;;;20.40;56.36;99670.66;7310509;19;129456;-38
2022/10/13 12:27:51;;;;;;;;;;;;;;;20.32;56.60;99670.50;7313263;19;129640;-37
2022/10/13 12:30:27;;;;;;;;;;;;;;;20.26;57.11;99668.41;7309621;19;130137;-37
2022/10/13 12:32:54;;;;;;;;;;;;;;;20.25;57.50;99666.75;7312309;19;129052;-38
2022/10/13 12:35:24;;;;;;;;;;;;;;;20.31;57.48;99666.25;7311964;19;129716;-37
2022/10/13 12:37:50;;;;;;;;;;;;;;;20.29;56.66;99668.16;7314225;19;129135;-38
2022/10/13 12:40:16;;;;;;;;;;;;;;;20.27;57.73;99667.44;7308542;19;129537;-37